sensor_id;sensor_type;location;lat;lon;timestamp;pressure;altitude;pressure_sealevel;temperature;humidity
7614;BME280;3848;42.016;23.098;2022-09-09T00:02:18;97289.53;;;19.34;100.00
7614;BME280;3848;42.016;23.098;2022-09-09T00:04:53;97260.22;;;19.16;100.00
7614;BME280;3848;42.016;23.098;2022-09-09T00:07:33;97291.38;;;19.30;100.00
7614;BME280;3848;42.016;23.098;2022-09-09T00:10:13;97295.91;;;19.25;100.00
7614;BME280;3848;42.016;23.098;2022-09-09T00:12:47;97300.78;;;19.31;100.00
7614;BME280;3848;42.016;23.098;2022-09-09T00:15:19;97290.56;;;19.30;100.00
7614;BME280;3848;42.016;23.098;2022-09-09T00:17:51;97289.47;;;19.35;100.00
7614;BME280;3848;42.016;23.098;2022-09-09T00:20:25;97285.13;;;19.36;100.00
7614;BME280;3848;42.016;23.098;2022-09-09T00:22:59;97280.00;;;19.36;100.00
7614;BME280;3848;42.016;23.098;2022-09-09T00:25:31;97286.88;;;19.35;100.00
7614;BME280;3848;42.016;23.098;2022-09-09T00:28:00;97290.50;;;19.31;100.00
7614;BME280;3848;42.016;23.098;2022-09-09T00:30:31;97293.31;;;19.25;100.00
7614;BME280;3848;42.016;23.098;2022-09-09T00:33:05;97285.53;;;19.27;100.00
7614;BME280;3848;42.016;23.098;2022-09-09T00:35:38;97285.78;;;19.21;100.00
7614;BME280;3848;42.016;23.098;2022-09-09T00:38:15;97283.97;;;19.23;100.00
7614;BME280;3848;42.016;23.098;2022-09-09T00:40:49;97268.72;;;19.18;100.00
7614;BME280;3848;42.016;23.098;2022-09-09T00:43:35;97273.09;;;19.16;100.00
7614;BME280;3848;42.016;23.098;2022-09-09T00:46:14;97281.03;;;19.10;100.00
7614;BME280;3848;42.016;23.098;2022-09-09T00:48:54;97229.00;;;18.80;100.00
7614;BME280;3848;42.016;23.098;2022-09-09T00:51:31;97279.44;;;19.07;100.00
7614;BME280;3848;42.016;23.098;2022-09-09T00:54:13;97283.81;;;19.05;100.00
7614;BME280;3848;42.016;23.098;2022-09-09T00:56:50;97285.66;;;19.02;100.00
7614;BME280;3848;42.016;23.098;2022-09-09T00:59:26;97281.34;;;19.02;100.00
7614;BME280;3848;42.016;23.098;2022-09-09T01:01:56;97290.03;;;19.00;100.00
7614;BME280;3848;42.016;23.098;2022-09-09T01:04:27;97289.16;;;19.01;100.00
7614;BME280;3848;42.016;23.098;2022-09-09T01:07:03;97284.22;;;18.95;100.00
7614;BME280;3848;42.016;23.098;2022-09-09T01:09:43;97290.31;;;18.92;100.00
7614;BME280;3848;42.016;23.098;2022-09-09T01:12:15;97288.66;;;18.91;100.00
7614;BME280;3848;42.016;23.098;2022-09-09T01:14:47;97289.31;;;18.96;100.00
7614;BME280;3848;42.016;23.098;2022-09-09T01:17:19;97292.81;;;18.95;100.00
7614;BME280;3848;42.016;23.098;2022-09-09T01:19:58;97285.16;;;18.92;100.00
7614;BME280;3848;42.016;23.098;2022-09-09T01:22:34;97296.44;;;18.89;100.00
7614;BME280;3848;42.016;23.098;2022-09-09T01:25:26;97301.81;;;18.83;100.00
7614;BME280;3848;42.016;23.098;2022-09-09T01:27:58;97307.28;;;18.76;100.00
7614;BME280;3848;42.016;23.098;2022-09-09T01:30:26;97305.94;;;18.66;100.00
7614;BME280;3848;42.016;23.098;2022-09-09T01:32:55;97309.34;;;18.66;100.00
7614;BME280;3848;42.016;23.098;2022-09-09T01:35:37;97300.47;;;18.73;100.00
7614;BME280;3848;42.016;23.098;2022-09-09T01:38:06;97301.22;;;18.77;100.00
7614;BME280;3848;42.016;23.098;2022-09-09T01:40:33;97300.47;;;18.73;100.00
7614;BME280;3848;42.016;23.098;2022-09-09T01:43:01;97299.66;;;18.73;100.00
7614;BME280;3848;42.016;23.098;2022-09-09T01:45:28;97306.78;;;18.66;100.00
7614;BME280;3848;42.016;23.098;2022-09-09T01:47:56;97301.75;;;18.63;100.00
7614;BME280;3848;42.016;23.098;2022-09-09T01:50:23;97302.59;;;18.62;100.00
7614;BME280;3848;42.016;23.098;2022-09-09T01:52:52;97303.56;;;18.59;100.00
7614;BME280;3848;42.016;23.098;2022-09-09T01:55:28;97297.63;;;18.57;100.00
7614;BME280;3848;42.016;23.098;2022-09-09T02:00:50;97296.09;;;18.52;100.00
7614;BME280;3848;42.016;23.098;2022-09-09T02:03:24;97289.53;;;18.45;100.00
7614;BME280;3848;42.016;23.098;2022-09-09T02:05:57;97297.25;;;18.45;100.00
7614;BME280;3848;42.016;23.098;2022-09-09T02:08:33;97291.38;;;18.41;100.00
7614;BME280;3848;42.016;23.098;2022-09-09T02:11:06;97287.25;;;18.37;100.00
7614;BME280;3848;42.016;23.098;2022-09-09T02:13:35;97289.97;;;18.33;100.00
7614;BME280;3848;42.016;23.098;2022-09-09T02:16:07;97284.09;;;18.29;100.00
7614;BME280;3848;42.016;23.098;2022-09-09T02:18:39;97292.38;;;18.37;100.00
7614;BME280;3848;42.016;23.098;2022-09-09T02:21:08;97290.47;;;18.42;100.00
7614;BME280;3848;42.016;23.098;2022-09-09T02:23:38;97287.06;;;18.42;100.00
7614;BME280;3848;42.016;23.098;2022-09-09T02:26:08;97259.97;;;18.32;100.00
7614;BME280;3848;42.016;23.098;2022-09-09T02:28:37;97281.97;;;18.40;100.00
7614;BME280;3848;42.016;23.098;2022-09-09T02:31:06;97271.63;;;18.42;100.00
7614;BME280;3848;42.016;23.098;2022-09-09T02:33:36;97278.50;;;18.41;100.00
7614;BME280;3848;42.016;23.098;2022-09-09T02:36:07;97290.28;;;18.47;100.00
7614;BME280;3848;42.016;23.098;2022-09-09T02:38:41;97282.56;;;18.47;100.00
7614;BME280;3848;42.016;23.098;2022-09-09T02:41:09;97249.13;;;18.23;100.00
7614;BME280;3848;42.016;23.098;2022-09-09T02:43:36;97285.28;;;18.44;100.00
7614;BME280;3848;42.016;23.098;2022-09-09T02:46:11;97283.94;;;18.34;100.00
7614;BME280;3848;42.016;23.098;2022-09-09T02:48:52;97291.13;;;18.24;100.00
7614;BME280;3848;42.016;23.098;2022-09-09T02:51:27;97285.28;;;18.20;100.00
7614;BME280;3848;42.016;23.098;2022-09-09T02:54:05;97286.06;;;18.22;100.00
7614;BME280;3848;42.016;23.098;2022-09-09T02:56:42;97281.91;;;18.18;100.00
7614;BME280;3848;42.016;23.098;2022-09-09T02:59:12;97282.63;;;18.22;100.00
7614;BME280;3848;42.016;23.098;2022-09-09T03:01:40;97287.13;;;18.17;100.00
7614;BME280;3848;42.016;23.098;2022-09-09T03:04:07;97287.19;;;18.15;100.00
7614;BME280;3848;42.016;23.098;2022-09-09T03:06:34;97269.94;;;18.17;100.00
7614;BME280;3848;42.016;23.098;2022-09-09T03:09:01;97266.59;;;18.15;100.00
7614;BME280;3848;42.016;23.098;2022-09-09T03:11:28;97260.81;;;18.09;100.00
7614;BME280;3848;42.016;23.098;2022-09-09T03:13:55;97276.16;;;18.12;100.00
7614;BME280;3848;42.016;23.098;2022-09-09T03:16:22;97282.34;;;18.06;100.00
7614;BME280;3848;42.016;23.098;2022-09-09T03:18:50;97286.09;;;17.97;100.00
7614;BME280;3848;42.016;23.098;2022-09-09T03:21:17;97294.94;;;17.89;100.00
7614;BME280;3848;42.016;23.098;2022-09-09T03:23:44;97296.84;;;17.84;100.00
7614;BME280;3848;42.016;23.098;2022-09-09T03:26:11;97301.03;;;17.86;100.00
7614;BME280;3848;42.016;23.098;2022-09-09T03:28:40;97274.94;;;17.74;100.00
7614;BME280;3848;42.016;23.098;2022-09-09T03:31:07;97284.16;;;17.79;100.00
7614;BME280;3848;42.016;23.098;2022-09-09T03:33:35;97282.47;;;17.78;100.00
7614;BME280;3848;42.016;23.098;2022-09-09T03:36:04;97288.34;;;17.82;100.00
7614;BME280;3848;42.016;23.098;2022-09-09T03:38:32;97286.44;;;17.87;100.00
7614;BME280;3848;42.016;23.098;2022-09-09T03:41:00;97282.19;;;17.86;100.00
7614;BME280;3848;42.016;23.098;2022-09-09T03:43:28;97287.22;;;17.89;100.00
7614;BME280;3848;42.016;23.098;2022-09-09T03:45:55;97281.31;;;17.87;100.00
7614;BME280;3848;42.016;23.098;2022-09-09T03:48:22;97287.22;;;17.89;100.00
7614;BME280;3848;42.016;23.098;2022-09-09T03:50:51;97283.75;;;17.90;100.00
7614;BME280;3848;42.016;23.098;2022-09-09T03:53:21;97289.72;;;17.92;100.00
7614;BME280;3848;42.016;23.098;2022-09-09T03:55:51;97287.81;;;17.97;100.00
7614;BME280;3848;42.016;23.098;2022-09-09T03:58:21;97287.94;;;17.94;100.00
7614;BME280;3848;42.016;23.098;2022-09-09T04:01:00;97287.94;;;17.94;100.00
7614;BME280;3848;42.016;23.098;2022-09-09T04:03:28;97299.19;;;17.90;100.00
7614;BME280;3848;42.016;23.098;2022-09-09T04:05:56;97307.91;;;17.86;100.00
7614;BME280;3848;42.016;23.098;2022-09-09T04:08:25;97300.25;;;17.84;100.00
7614;BME280;3848;42.016;23.098;2022-09-09T04:10:52;97306.44;;;17.79;100.00
7614;BME280;3848;42.016;23.098;2022-09-09T04:13:22;97307.50;;;17.73;100.00
7614;BME280;3848;42.016;23.098;2022-09-09T04:15:51;97305.09;;;17.67;100.00
7614;BME280;3848;42.016;23.098;2022-09-09T04:18:18;97290.81;;;17.58;100.00
7614;BME280;3848;42.016;23.098;2022-09-09T04:20:46;97309.38;;;17.66;100.00
7614;BME280;3848;42.016;23.098;2022-09-09T04:23:13;97306.03;;;17.64;100.00
7614;BME280;3848;42.016;23.098;2022-09-09T04:25:45;97313.16;;;17.56;100.00
7614;BME280;3848;42.016;23.098;2022-09-09T04:28:12;97304.78;;;17.51;100.00
7614;BME280;3848;42.016;23.098;2022-09-09T04:30:39;97301.69;;;17.40;100.00
7614;BME280;3848;42.016;23.098;2022-09-09T04:33:06;97306.63;;;17.46;100.00
7614;BME280;3848;42.016;23.098;2022-09-09T04:35:33;97292.31;;;17.39;100.00
7614;BME280;3848;42.016;23.098;2022-09-09T04:38:00;97314.50;;;17.42;100.00
7614;BME280;3848;42.016;23.098;2022-09-09T04:40:28;97317.31;;;17.34;100.00
7614;BME280;3848;42.016;23.098;2022-09-09T04:42:57;97316.44;;;17.35;100.00
7614;BME280;3848;42.016;23.098;2022-09-09T04:45:24;97324.88;;;17.38;100.00
7614;BME280;3848;42.016;23.098;2022-09-09T04:47:51;97328.13;;;17.44;100.00
7614;BME280;3848;42.016;23.098;2022-09-09T04:50:19;97322.84;;;17.48;100.00
7614;BME280;3848;42.016;23.098;2022-09-09T04:52:45;97315.84;;;17.53;100.00
7614;BME280;3848;42.016;23.098;2022-09-09T04:55:13;97311.47;;;17.55;100.00
7614;BME280;3848;42.016;23.098;2022-09-09T04:57:40;97312.22;;;17.59;100.00
7614;BME280;3848;42.016;23.098;2022-09-09T05:00:09;97317.94;;;17.67;100.00
7614;BME280;3848;42.016;23.098;2022-09-09T05:02:39;97327.16;;;17.74;100.00
7614;BME280;3848;42.016;23.098;2022-09-09T05:05:08;97332.09;;;17.80;100.00
7614;BME280;3848;42.016;23.098;2022-09-09T05:07:36;97327.78;;;17.81;100.00
7614;BME280;3848;42.016;23.098;2022-09-09T05:10:04;97317.63;;;17.78;100.00
7614;BME280;3848;42.016;23.098;2022-09-09T05:12:31;97307.84;;;17.87;100.00
7614;BME280;3848;42.016;23.098;2022-09-09T05:14:58;97299.13;;;17.93;100.00
7614;BME280;3848;42.016;23.098;2022-09-09T05:17:26;97290.56;;;17.92;100.00
7614;BME280;3848;42.016;23.098;2022-09-09T05:19:54;97298.59;;;18.07;100.00
7614;BME280;3848;42.016;23.098;2022-09-09T05:22:21;97303.69;;;18.08;100.00
7614;BME280;3848;42.016;23.098;2022-09-09T05:24:48;97286.94;;;17.98;100.00
7614;BME280;3848;42.016;23.098;2022-09-09T05:27:16;97303.69;;;18.08;100.00
7614;BME280;3848;42.016;23.098;2022-09-09T05:29:43;97308.59;;;18.16;100.00
7614;BME280;3848;42.016;23.098;2022-09-09T05:32:10;97314.63;;;18.15;100.00
7614;BME280;3848;42.016;23.098;2022-09-09T05:34:38;97297.53;;;18.14;100.00
7614;BME280;3848;42.016;23.098;2022-09-09T05:37:05;97288.97;;;18.13;100.00
7614;BME280;3848;42.016;23.098;2022-09-09T05:39:33;97286.00;;;18.24;100.00
7614;BME280;3848;42.016;23.098;2022-09-09T05:42:01;97287.06;;;18.18;100.00
7614;BME280;3848;42.016;23.098;2022-09-09T05:44:30;97283.75;;;18.15;100.00
7614;BME280;3848;42.016;23.098;2022-09-09T05:46:57;97291.38;;;18.18;100.00
7614;BME280;3848;42.016;23.098;2022-09-09T05:49:24;97283.75;;;18.15;100.00
7614;BME280;3848;42.016;23.098;2022-09-09T05:51:52;97298.44;;;18.11;100.00
7614;BME280;3848;42.016;23.098;2022-09-09T05:54:19;97297.56;;;18.12;100.00
7614;BME280;3848;42.016;23.098;2022-09-09T05:56:46;97305.13;;;18.17;100.00
7614;BME280;3848;42.016;23.098;2022-09-09T05:59:16;97302.38;;;18.21;100.00
7614;BME280;3848;42.016;23.098;2022-09-09T06:01:43;97313.16;;;18.31;100.00
7614;BME280;3848;42.016;23.098;2022-09-09T06:04:10;97307.88;;;18.36;100.00
7614;BME280;3848;42.016;23.098;2022-09-09T06:06:38;97307.53;;;18.45;100.00
7614;BME280;3848;42.016;23.098;2022-09-09T06:09:08;97312.25;;;18.57;100.00
7614;BME280;3848;42.016;23.098;2022-09-09T06:11:36;97318.91;;;18.63;100.00
7614;BME280;3848;42.016;23.098;2022-09-09T06:14:04;97300.84;;;18.64;100.00
7614;BME280;3848;42.016;23.098;2022-09-09T06:16:33;97305.19;;;18.85;100.00
7614;BME280;3848;42.016;23.098;2022-09-09T06:19:00;97310.66;;;19.00;100.00
7614;BME280;3848;42.016;23.098;2022-09-09T06:21:29;97309.38;;;19.10;100.00
7614;BME280;3848;42.016;23.098;2022-09-09T06:23:57;97299.69;;;19.16;100.00
7614;BME280;3848;42.016;23.098;2022-09-09T06:26:27;97289.97;;;19.23;100.00
7614;BME280;3848;42.016;23.098;2022-09-09T06:28:54;97279.22;;;19.34;100.00
7614;BME280;3848;42.016;23.098;2022-09-09T06:31:24;97275.31;;;19.45;100.00
7614;BME280;3848;42.016;23.098;2022-09-09T06:33:53;97276.63;;;19.56;100.00
7614;BME280;3848;42.016;23.098;2022-09-09T06:36:21;97273.34;;;19.72;100.00
7614;BME280;3848;42.016;23.098;2022-09-09T06:38:49;97282.31;;;19.84;100.00
7614;BME280;3848;42.016;23.098;2022-09-09T06:41:18;97277.44;;;19.97;100.00
7614;BME280;3848;42.016;23.098;2022-09-09T06:43:47;97282.72;;;20.14;100.00
7614;BME280;3848;42.016;23.098;2022-09-09T06:46:15;97273.41;;;20.30;100.00
7614;BME280;3848;42.016;23.098;2022-09-09T06:48:44;97272.06;;;20.42;100.00
7614;BME280;3848;42.016;23.098;2022-09-09T06:51:12;97279.16;;;20.56;100.00
7614;BME280;3848;42.016;23.098;2022-09-09T06:53:41;97282.19;;;20.65;100.00
7614;BME280;3848;42.016;23.098;2022-09-09T06:56:19;97277.50;;;20.74;100.00
7614;BME280;3848;42.016;23.098;2022-09-09T06:58:48;97268.41;;;20.84;100.00
7614;BME280;3848;42.016;23.098;2022-09-09T07:01:17;97272.75;;;21.00;100.00
7614;BME280;3848;42.016;23.098;2022-09-09T07:03:46;97264.75;;;21.07;100.00
7614;BME280;3848;42.016;23.098;2022-09-09T07:06:15;97265.13;;;21.16;100.00
7614;BME280;3848;42.016;23.098;2022-09-09T07:08:43;97262.00;;;21.28;100.00
7614;BME280;3848;42.016;23.098;2022-09-09T07:11:10;97272.56;;;21.41;100.00
7614;BME280;3848;42.016;23.098;2022-09-09T07:13:37;97264.88;;;21.57;100.00
7614;BME280;3848;42.016;23.098;2022-09-09T07:16:07;97256.19;;;21.58;100.00
7614;BME280;3848;42.016;23.098;2022-09-09T07:18:34;97248.28;;;21.61;100.00
7614;BME280;3848;42.016;23.098;2022-09-09T07:21:02;97238.94;;;21.58;100.00
7614;BME280;3848;42.016;23.098;2022-09-09T07:23:29;97249.50;;;21.71;100.00
7614;BME280;3848;42.016;23.098;2022-09-09T07:25:57;97249.69;;;21.84;100.00
7614;BME280;3848;42.016;23.098;2022-09-09T07:28:24;97235.72;;;21.88;100.00
7614;BME280;3848;42.016;23.098;2022-09-09T07:30:55;97242.31;;;22.11;100.00
7614;BME280;3848;42.016;23.098;2022-09-09T07:33:24;97236.66;;;22.20;100.00
7614;BME280;3848;42.016;23.098;2022-09-09T07:35:51;97232.91;;;22.41;100.00
7614;BME280;3848;42.016;23.098;2022-09-09T07:38:19;97218.94;;;22.44;100.00
7614;BME280;3848;42.016;23.098;2022-09-09T07:40:46;97237.50;;;22.68;100.00
7614;BME280;3848;42.016;23.098;2022-09-09T07:43:13;97230.72;;;22.81;100.00
7614;BME280;3848;42.016;23.098;2022-09-09T07:45:44;97230.66;;;22.98;100.00
7614;BME280;3848;42.016;23.098;2022-09-09T07:48:11;97230.22;;;23.06;100.00
7614;BME280;3848;42.016;23.098;2022-09-09T07:50:39;97231.94;;;23.21;100.00
7614;BME280;3848;42.016;23.098;2022-09-09T07:53:06;97229.50;;;23.34;100.00
7614;BME280;3848;42.016;23.098;2022-09-09T07:55:33;97230.03;;;23.55;100.00
7614;BME280;3848;42.016;23.098;2022-09-09T07:57:59;97189.31;;;23.41;100.00
7614;BME280;3848;42.016;23.098;2022-09-09T08:00:26;97225.91;;;23.81;100.00
7614;BME280;3848;42.016;23.098;2022-09-09T08:02:53;97228.53;;;23.95;100.00
7614;BME280;3848;42.016;23.098;2022-09-09T08:05:20;97218.03;;;24.11;100.00
7614;BME280;3848;42.016;23.098;2022-09-09T08:07:49;97219.59;;;24.27;100.00
7614;BME280;3848;42.016;23.098;2022-09-09T08:10:16;97223.97;;;24.41;100.00
7614;BME280;3848;42.016;23.098;2022-09-09T08:12:43;97210.88;;;24.43;100.00
7614;BME280;3848;42.016;23.098;2022-09-09T08:15:11;97214.97;;;24.74;100.00
7614;BME280;3848;42.016;23.098;2022-09-09T08:17:38;97209.97;;;24.98;100.00
7614;BME280;3848;42.016;23.098;2022-09-09T08:20:05;97214.47;;;25.35;100.00
7614;BME280;3848;42.016;23.098;2022-09-09T08:22:32;97215.63;;;25.57;100.00
7614;BME280;3848;42.016;23.098;2022-09-09T08:25:05;97213.41;;;25.90;100.00
7614;BME280;3848;42.016;23.098;2022-09-09T08:27:34;97214.03;;;26.06;100.00
7614;BME280;3848;42.016;23.098;2022-09-09T08:30:00;97214.31;;;26.27;89.92
7614;BME280;3848;42.016;23.098;2022-09-09T08:32:27;97218.56;;;26.41;84.75
7614;BME280;3848;42.016;23.098;2022-09-09T08:34:54;97201.56;;;26.48;83.49
7614;BME280;3848;42.016;23.098;2022-09-09T08:37:21;97220.44;;;26.76;81.27
7614;BME280;3848;42.016;23.098;2022-09-09T08:39:48;97205.00;;;26.96;84.67
7614;BME280;3848;42.016;23.098;2022-09-09T08:42:30;97209.63;;;27.17;81.25
7614;BME280;3848;42.016;23.098;2022-09-09T08:45:14;97199.72;;;27.33;78.51
7614;BME280;3848;42.016;23.098;2022-09-09T08:47:53;97207.50;;;27.57;77.26
7614;BME280;3848;42.016;23.098;2022-09-09T08:50:26;97209.81;;;27.73;73.49
7614;BME280;3848;42.016;23.098;2022-09-09T08:52:58;97201.75;;;27.98;68.36
7614;BME280;3848;42.016;23.098;2022-09-09T08:55:35;97192.88;;;28.12;64.41
7614;BME280;3848;42.016;23.098;2022-09-09T08:58:11;97194.28;;;28.38;64.40
7614;BME280;3848;42.016;23.098;2022-09-09T09:00:44;97182.75;;;28.41;61.45
7614;BME280;3848;42.016;23.098;2022-09-09T09:03:21;97184.63;;;28.50;62.36
7614;BME280;3848;42.016;23.098;2022-09-09T09:05:59;97192.53;;;28.71;62.58
7614;BME280;3848;42.016;23.098;2022-09-09T09:08:34;97172.66;;;28.91;59.96
7614;BME280;3848;42.016;23.098;2022-09-09T09:11:04;97180.50;;;29.23;61.16
7614;BME280;3848;42.016;23.098;2022-09-09T09:13:38;97181.56;;;29.20;59.19
7614;BME280;3848;42.016;23.098;2022-09-09T09:16:12;97158.00;;;28.99;61.14
7614;BME280;3848;42.016;23.098;2022-09-09T09:18:40;97192.34;;;29.59;58.11
7614;BME280;3848;42.016;23.098;2022-09-09T09:21:11;97193.50;;;29.45;57.33
7614;BME280;3848;42.016;23.098;2022-09-09T09:23:44;97180.06;;;29.38;60.60
7614;BME280;3848;42.016;23.098;2022-09-09T09:26:12;97178.09;;;29.52;59.23
7614;BME280;3848;42.016;23.098;2022-09-09T09:28:40;97147.97;;;29.25;58.53
7614;BME280;3848;42.016;23.098;2022-09-09T09:31:09;97177.63;;;29.67;58.80
7614;BME280;3848;42.016;23.098;2022-09-09T09:33:45;97172.16;;;30.01;58.51
7614;BME280;3848;42.016;23.098;2022-09-09T09:36:14;97161.47;;;30.23;57.06
7614;BME280;3848;42.016;23.098;2022-09-09T09:38:53;97163.38;;;30.12;57.72
7614;BME280;3848;42.016;23.098;2022-09-09T09:41:35;97157.03;;;29.84;56.57
7614;BME280;3848;42.016;23.098;2022-09-09T09:44:04;97156.53;;;29.69;56.73
7614;BME280;3848;42.016;23.098;2022-09-09T09:46:32;97129.91;;;29.22;56.97
7614;BME280;3848;42.016;23.098;2022-09-09T09:49:01;97160.06;;;29.17;57.76
7614;BME280;3848;42.016;23.098;2022-09-09T09:51:30;97153.97;;;28.95;59.10
7614;BME280;3848;42.016;23.098;2022-09-09T09:54:09;97138.44;;;28.71;60.28
7614;BME280;3848;42.016;23.098;2022-09-09T09:56:41;97149.50;;;28.75;62.17
7614;BME280;3848;42.016;23.098;2022-09-09T09:59:22;97149.13;;;28.79;63.93
7614;BME280;3848;42.016;23.098;2022-09-09T10:01:49;97131.38;;;28.83;63.07
7614;BME280;3848;42.016;23.098;2022-09-09T10:04:18;97145.41;;;28.93;63.60
7614;BME280;3848;42.016;23.098;2022-09-09T10:06:47;97141.78;;;29.05;64.71
7614;BME280;3848;42.016;23.098;2022-09-09T10:09:24;97140.53;;;29.21;62.65
7614;BME280;3848;42.016;23.098;2022-09-09T10:11:57;97141.59;;;29.39;64.69
7614;BME280;3848;42.016;23.098;2022-09-09T10:14:30;97144.09;;;29.61;62.02
7614;BME280;3848;42.016;23.098;2022-09-09T10:17:10;97153.78;;;29.70;61.03
7614;BME280;3848;42.016;23.098;2022-09-09T10:19:43;97153.78;;;29.70;61.76
7614;BME280;3848;42.016;23.098;2022-09-09T10:22:25;97152.47;;;29.55;63.28
7614;BME280;3848;42.016;23.098;2022-09-09T10:25:14;97153.81;;;29.50;63.21
7614;BME280;3848;42.016;23.098;2022-09-09T10:27:55;97154.63;;;29.29;66.31
7614;BME280;3848;42.016;23.098;2022-09-09T10:30:36;97161.84;;;29.37;68.22
7614;BME280;3848;42.016;23.098;2022-09-09T10:33:10;97158.41;;;29.36;66.23
7614;BME280;3848;42.016;23.098;2022-09-09T10:35:45;97150.16;;;29.41;66.92
7614;BME280;3848;42.016;23.098;2022-09-09T10:38:18;97168.50;;;29.41;67.08
7614;BME280;3848;42.016;23.098;2022-09-09T10:41:05;97150.84;;;29.43;64.27
7614;BME280;3848;42.016;23.098;2022-09-09T10:43:48;97147.28;;;29.44;64.73
7614;BME280;3848;42.016;23.098;2022-09-09T10:46:24;97148.28;;;29.32;64.84
7614;BME280;3848;42.016;23.098;2022-09-09T10:49:03;97154.34;;;29.32;68.57
7614;BME280;3848;42.016;23.098;2022-09-09T10:51:40;97158.00;;;29.41;67.69
7614;BME280;3848;42.016;23.098;2022-09-09T10:54:23;97149.81;;;29.34;65.75
7614;BME280;3848;42.016;23.098;2022-09-09T10:56:57;97149.00;;;29.34;65.64
7614;BME280;3848;42.016;23.098;2022-09-09T10:59:29;97155.34;;;29.52;65.75
7614;BME280;3848;42.016;23.098;2022-09-09T11:02:02;97157.78;;;29.74;64.34
7614;BME280;3848;42.016;23.098;2022-09-09T11:04:35;97144.88;;;30.03;65.82
7614;BME280;3848;42.016;23.098;2022-09-09T11:07:09;97153.72;;;30.12;60.65
7614;BME280;3848;42.016;23.098;2022-09-09T11:09:41;97146.75;;;30.01;61.08
7614;BME280;3848;42.016;23.098;2022-09-09T11:12:12;97137.69;;;30.06;60.89
7614;BME280;3848;42.016;23.098;2022-09-09T11:14:44;97139.63;;;30.03;61.14
7614;BME280;3848;42.016;23.098;2022-09-09T11:17:15;97137.31;;;29.89;60.99
7614;BME280;3848;42.016;23.098;2022-09-09T11:19:45;97142.84;;;29.96;61.52
7614;BME280;3848;42.016;23.098;2022-09-09T11:22:19;97156.91;;;29.95;63.62
7614;BME280;3848;42.016;23.098;2022-09-09T11:24:50;97159.84;;;29.71;63.60
7614;BME280;3848;42.016;23.098;2022-09-09T11:27:22;97151.00;;;29.62;66.15
7614;BME280;3848;42.016;23.098;2022-09-09T11:30:05;97137.22;;;29.60;67.62
7614;BME280;3848;42.016;23.098;2022-09-09T11:33:07;97131.63;;;29.54;68.07
7614;BME280;3848;42.016;23.098;2022-09-09T11:35:48;97134.09;;;29.46;66.34
7614;BME280;3848;42.016;23.098;2022-09-09T11:38:24;97133.47;;;29.42;68.59
7614;BME280;3848;42.016;23.098;2022-09-09T11:40:57;97121.63;;;29.38;68.66
7614;BME280;3848;42.016;23.098;2022-09-09T11:43:29;97116.63;;;29.35;69.01
7614;BME280;3848;42.016;23.098;2022-09-09T11:45:59;97117.63;;;29.43;69.66
7614;BME280;3848;42.016;23.098;2022-09-09T11:48:34;97089.03;;;29.31;70.16
7614;BME280;3848;42.016;23.098;2022-09-09T11:51:07;97122.59;;;29.58;67.99
7614;BME280;3848;42.016;23.098;2022-09-09T11:53:35;97117.28;;;29.48;67.04
7614;BME280;3848;42.016;23.098;2022-09-09T11:56:13;97109.16;;;29.30;69.38
7614;BME280;3848;42.016;23.098;2022-09-09T11:58:55;97112.47;;;29.32;71.29
7614;BME280;3848;42.016;23.098;2022-09-09T12:01:29;97101.69;;;29.26;68.29
7614;BME280;3848;42.016;23.098;2022-09-09T12:04:17;97108.66;;;29.36;68.66
7614;BME280;3848;42.016;23.098;2022-09-09T12:06:46;97105.13;;;29.47;69.79
7614;BME280;3848;42.016;23.098;2022-09-09T12:09:21;97096.75;;;29.84;67.19
7614;BME280;3848;42.016;23.098;2022-09-09T12:11:49;97095.06;;;30.13;69.98
7614;BME280;3848;42.016;23.098;2022-09-09T12:14:21;97096.06;;;30.31;67.38
7614;BME280;3848;42.016;23.098;2022-09-09T12:16:48;97090.72;;;30.43;66.02
7614;BME280;3848;42.016;23.098;2022-09-09T12:19:20;97091.41;;;30.45;66.86
7614;BME280;3848;42.016;23.098;2022-09-09T12:21:57;97095.53;;;30.47;65.30
7614;BME280;3848;42.016;23.098;2022-09-09T12:24:32;97090.03;;;30.41;63.98
7614;BME280;3848;42.016;23.098;2022-09-09T12:27:07;97087.38;;;30.21;62.48
7614;BME280;3848;42.016;23.098;2022-09-09T12:29:44;97085.81;;;30.09;60.51
7614;BME280;3848;42.016;23.098;2022-09-09T12:32:15;97080.03;;;30.06;60.45
7614;BME280;3848;42.016;23.098;2022-09-09T12:34:47;97061.53;;;30.07;66.70
7614;BME280;3848;42.016;23.098;2022-09-09T12:37:19;97068.94;;;30.02;70.11
7614;BME280;3848;42.016;23.098;2022-09-09T12:39:53;97070.59;;;30.03;71.71
7614;BME280;3848;42.016;23.098;2022-09-09T12:42:22;97073.88;;;29.86;69.96
7614;BME280;3848;42.016;23.098;2022-09-09T12:44:54;97068.44;;;29.78;71.39
7614;BME280;3848;42.016;23.098;2022-09-09T12:47:25;97071.66;;;29.81;71.69
7614;BME280;3848;42.016;23.098;2022-09-09T12:49:56;97071.13;;;29.87;71.31
7614;BME280;3848;42.016;23.098;2022-09-09T12:52:28;97072.34;;;29.83;73.33
7614;BME280;3848;42.016;23.098;2022-09-09T12:54:58;97070.41;;;29.85;70.86
7614;BME280;3848;42.016;23.098;2022-09-09T12:57:31;97071.25;;;29.86;73.12
7614;BME280;3848;42.016;23.098;2022-09-09T13:00:10;97055.06;;;29.71;73.53
7614;BME280;3848;42.016;23.098;2022-09-09T13:02:49;97058.78;;;29.68;74.30
7614;BME280;3848;42.016;23.098;2022-09-09T13:05:20;97080.53;;;29.59;76.02
7614;BME280;3848;42.016;23.098;2022-09-09T13:07:48;97060.09;;;29.53;75.42
7614;BME280;3848;42.016;23.098;2022-09-09T13:10:21;97066.56;;;29.49;74.25
7614;BME280;3848;42.016;23.098;2022-09-09T13:12:50;97064.91;;;29.48;79.44
7614;BME280;3848;42.016;23.098;2022-09-09T13:15:21;97062.09;;;29.40;81.03
7614;BME280;3848;42.016;23.098;2022-09-09T13:17:51;97075.81;;;29.32;82.43
7614;BME280;3848;42.016;23.098;2022-09-09T13:20:21;97074.41;;;29.28;81.19
7614;BME280;3848;42.016;23.098;2022-09-09T13:22:50;97073.84;;;29.25;83.83
7614;BME280;3848;42.016;23.098;2022-09-09T13:25:21;97074.81;;;29.24;83.32
7614;BME280;3848;42.016;23.098;2022-09-09T13:27:55;97080.44;;;29.19;84.42
7614;BME280;3848;42.016;23.098;2022-09-09T13:30:24;97083.25;;;29.06;87.43